sensor_id;sensor_type;location;lat;lon;timestamp;temperature;humidity
65421;DHT22;52028;50.658;14.004;2022-11-15T00:00:49;4.94;90.76
65421;DHT22;52028;50.658;14.004;2022-11-15T00:03:15;5.00;90.67
65421;DHT22;52028;50.658;14.004;2022-11-15T00:05:42;5.11;90.13
65421;DHT22;52028;50.658;14.004;2022-11-15T00:08:07;5.16;89.79
65421;DHT22;52028;50.658;14.004;2022-11-15T00:10:33;5.30;89.50
65421;DHT22;52028;50.658;14.004;2022-11-15T00:12:58;5.32;89.00
65421;DHT22;52028;50.658;14.004;2022-11-15T00:15:24;5.35;88.99
65421;DHT22;52028;50.658;14.004;2022-11-15T00:17:49;5.41;88.92
65421;DHT22;52028;50.658;14.004;2022-11-15T00:20:15;5.36;89.11
65421;DHT22;52028;50.658;14.004;2022-11-15T00:22:40;5.28;89.47
65421;DHT22;52028;50.658;14.004;2022-11-15T00:25:06;5.38;89.63
65421;DHT22;52028;50.658;14.004;2022-11-15T00:27:31;5.30;89.80
65421;DHT22;52028;50.658;14.004;2022-11-15T00:29:57;5.36;90.11
65421;DHT22;52028;50.658;14.004;2022-11-15T00:32:22;5.39;90.24
65421;DHT22;52028;50.658;14.004;2022-11-15T00:34:47;5.55;90.16
65421;DHT22;52028;50.658;14.004;2022-11-15T00:37:13;5.69;89.90
65421;DHT22;52028;50.658;14.004;2022-11-15T00:39:38;5.79;89.75
65421;DHT22;52028;50.658;14.004;2022-11-15T00:42:03;5.79;89.63
65421;DHT22;52028;50.658;14.004;2022-11-15T00:44:29;5.85;89.60
65421;DHT22;52028;50.658;14.004;2022-11-15T00:46:54;5.79;89.49
65421;DHT22;52028;50.658;14.004;2022-11-15T00:49:19;5.77;89.53
65421;DHT22;52028;50.658;14.004;2022-11-15T00:51:45;5.83;89.52
65421;DHT22;52028;50.658;14.004;2022-11-15T00:54:10;5.77;89.67
65421;DHT22;52028;50.658;14.004;2022-11-15T00:56:35;5.79;89.52
65421;DHT22;52028;50.658;14.004;2022-11-15T00:59:00;5.91;89.56
65421;DHT22;52028;50.658;14.004;2022-11-15T01:01:26;5.98;89.39
65421;DHT22;52028;50.658;14.004;2022-11-15T01:03:51;5.80;89.58
65421;DHT22;52028;50.658;14.004;2022-11-15T01:06:16;5.81;90.10
65421;DHT22;52028;50.658;14.004;2022-11-15T01:08:42;5.98;89.67
65421;DHT22;52028;50.658;14.004;2022-11-15T01:11:10;6.17;89.23
65421;DHT22;52028;50.658;14.004;2022-11-15T01:13:36;6.10;89.17
65421;DHT22;52028;50.658;14.004;2022-11-15T01:16:10;6.20;89.04
65421;DHT22;52028;50.658;14.004;2022-11-15T01:18:36;6.26;88.76
65421;DHT22;52028;50.658;14.004;2022-11-15T01:21:09;6.14;88.97
65421;DHT22;52028;50.658;14.004;2022-11-15T01:23:35;6.29;88.75
65421;DHT22;52028;50.658;14.004;2022-11-15T01:26:02;6.34;88.54
65421;DHT22;52028;50.658;14.004;2022-11-15T01:28:35;6.28;88.65
65421;DHT22;52028;50.658;14.004;2022-11-15T01:31:02;6.18;89.17
65421;DHT22;52028;50.658;14.004;2022-11-15T01:33:29;6.21;89.39
65421;DHT22;52028;50.658;14.004;2022-11-15T01:35:54;6.18;89.48
65421;DHT22;52028;50.658;14.004;2022-11-15T01:38:20;6.21;89.70
65421;DHT22;52028;50.658;14.004;2022-11-15T01:40:45;6.34;89.74
65421;DHT22;52028;50.658;14.004;2022-11-15T01:43:28;6.49;89.66
65421;DHT22;52028;50.658;14.004;2022-11-15T01:48:40;6.43;89.23
65421;DHT22;52028;50.658;14.004;2022-11-15T01:51:09;6.29;89.46
65421;DHT22;52028;50.658;14.004;2022-11-15T01:53:38;6.13;89.72
65421;DHT22;52028;50.658;14.004;2022-11-15T01:56:08;6.06;90.37
65421;DHT22;52028;50.658;14.004;2022-11-15T01:58:35;6.04;90.50
65421;DHT22;52028;50.658;14.004;2022-11-15T02:01:01;5.98;90.79
65421;DHT22;52028;50.658;14.004;2022-11-15T02:03:33;6.15;90.68
65421;DHT22;52028;50.658;14.004;2022-11-15T02:05:59;6.24;90.53
65421;DHT22;52028;50.658;14.004;2022-11-15T02:08:25;6.38;90.27
65421;DHT22;52028;50.658;14.004;2022-11-15T02:10:50;6.56;89.65
65421;DHT22;52028;50.658;14.004;2022-11-15T02:13:16;6.66;89.10
65421;DHT22;52028;50.658;14.004;2022-11-15T02:16:33;6.75;88.76
65421;DHT22;52028;50.658;14.004;2022-11-15T02:19:12;6.77;88.60
65421;DHT22;52028;50.658;14.004;2022-11-15T02:32:44;6.38;89.24
65421;DHT22;52028;50.658;14.004;2022-11-15T02:38:02;6.08;90.75
65421;DHT22;52028;50.658;14.004;2022-11-15T02:40:37;6.18;90.88
65421;DHT22;52028;50.658;14.004;2022-11-15T02:43:09;6.32;90.46
65421;DHT22;52028;50.658;14.004;2022-11-15T02:46:02;6.53;90.10
65421;DHT22;52028;50.658;14.004;2022-11-15T02:48:30;6.70;89.46
65421;DHT22;52028;50.658;14.004;2022-11-15T02:50:57;6.80;88.99
65421;DHT22;52028;50.658;14.004;2022-11-15T02:53:24;6.79;89.02
65421;DHT22;52028;50.658;14.004;2022-11-15T02:55:51;6.83;89.03
65421;DHT22;52028;50.658;14.004;2022-11-15T03:01:31;6.86;89.06
65421;DHT22;52028;50.658;14.004;2022-11-15T03:10:07;7.03;88.00
65421;DHT22;52028;50.658;14.004;2022-11-15T03:15:55;6.68;89.43
65421;DHT22;52028;50.658;14.004;2022-11-15T03:18:29;6.76;89.59
65421;DHT22;52028;50.658;14.004;2022-11-15T03:20:59;6.86;89.29
65421;DHT22;52028;50.658;14.004;2022-11-15T03:23:26;6.97;89.09
65421;DHT22;52028;50.658;14.004;2022-11-15T03:25:54;6.97;88.80
65421;DHT22;52028;50.658;14.004;2022-11-15T03:28:31;7.03;88.67
65421;DHT22;52028;50.658;14.004;2022-11-15T03:31:00;7.05;88.66
65421;DHT22;52028;50.658;14.004;2022-11-15T03:33:47;7.00;88.64
65421;DHT22;52028;50.658;14.004;2022-11-15T03:36:13;7.03;88.78
65421;DHT22;52028;50.658;14.004;2022-11-15T03:38:39;6.97;88.93
65421;DHT22;52028;50.658;14.004;2022-11-15T03:41:12;6.91;89.18
65421;DHT22;52028;50.658;14.004;2022-11-15T03:43:56;6.86;89.32
65421;DHT22;52028;50.658;14.004;2022-11-15T03:46:27;6.76;89.87
65421;DHT22;52028;50.658;14.004;2022-11-15T03:49:14;6.83;89.72
65421;DHT22;52028;50.658;14.004;2022-11-15T03:51:40;6.79;89.63
65421;DHT22;52028;50.658;14.004;2022-11-15T03:54:05;6.91;89.62
65421;DHT22;52028;50.658;14.004;2022-11-15T03:56:31;7.05;89.26
65421;DHT22;52028;50.658;14.004;2022-11-15T03:58:56;7.19;88.79
65421;DHT22;52028;50.658;14.004;2022-11-15T04:01:22;7.18;88.59
65421;DHT22;52028;50.658;14.004;2022-11-15T04:03:47;7.21;88.58
65421;DHT22;52028;50.658;14.004;2022-11-15T04:06:13;7.14;88.54
65421;DHT22;52028;50.658;14.004;2022-11-15T04:08:38;6.87;89.43
65421;DHT22;52028;50.658;14.004;2022-11-15T04:11:03;7.07;89.34
65421;DHT22;52028;50.658;14.004;2022-11-15T04:13:29;7.25;88.70
65421;DHT22;52028;50.658;14.004;2022-11-15T04:15:54;7.39;88.48
65421;DHT22;52028;50.658;14.004;2022-11-15T04:18:19;7.45;88.17
65421;DHT22;52028;50.658;14.004;2022-11-15T04:20:45;7.43;88.13
65421;DHT22;52028;50.658;14.004;2022-11-15T04:23:45;7.50;87.95
65421;DHT22;52028;50.658;14.004;2022-11-15T04:26:19;7.53;87.78
65421;DHT22;52028;50.658;14.004;2022-11-15T04:28:45;7.50;87.78
65421;DHT22;52028;50.658;14.004;2022-11-15T04:31:29;7.56;87.70
65421;DHT22;52028;50.658;14.004;2022-11-15T04:33:54;7.56;87.78
65421;DHT22;52028;50.658;14.004;2022-11-15T04:36:20;7.63;87.64
65421;DHT22;52028;50.658;14.004;2022-11-15T04:39:04;7.62;87.52
65421;DHT22;52028;50.658;14.004;2022-11-15T04:41:30;7.58;87.55
65421;DHT22;52028;50.658;14.004;2022-11-15T04:43:55;7.53;87.93
65421;DHT22;52028;50.658;14.004;2022-11-15T04:46:24;7.50;88.04
65421;DHT22;52028;50.658;14.004;2022-11-15T04:48:50;7.56;88.04
65421;DHT22;52028;50.658;14.004;2022-11-15T04:51:16;7.59;87.97
65421;DHT22;52028;50.658;14.004;2022-11-15T04:53:41;7.60;87.70
65421;DHT22;52028;50.658;14.004;2022-11-15T04:56:06;7.62;87.83
65421;DHT22;52028;50.658;14.004;2022-11-15T04:58:32;7.60;87.85
65421;DHT22;52028;50.658;14.004;2022-11-15T05:00:57;7.58;87.80
65421;DHT22;52028;50.658;14.004;2022-11-15T05:03:22;7.65;87.78
65421;DHT22;52028;50.658;14.004;2022-11-15T05:06:06;7.70;87.70
65421;DHT22;52028;50.658;14.004;2022-11-15T05:08:32;7.66;87.79
65421;DHT22;52028;50.658;14.004;2022-11-15T05:10:58;7.63;87.84
65421;DHT22;52028;50.658;14.004;2022-11-15T05:13:23;7.50;88.15
65421;DHT22;52028;50.658;14.004;2022-11-15T05:15:48;7.49;88.11
65421;DHT22;52028;50.658;14.004;2022-11-15T05:18:14;7.33;88.59
65421;DHT22;52028;50.658;14.004;2022-11-15T05:20:39;7.45;88.76
65421;DHT22;52028;50.658;14.004;2022-11-15T05:23:04;7.41;88.94
65421;DHT22;52028;50.658;14.004;2022-11-15T05:25:30;7.43;88.97
65421;DHT22;52028;50.658;14.004;2022-11-15T05:27:55;7.38;89.13
65421;DHT22;52028;50.658;14.004;2022-11-15T05:30:21;7.35;89.58
65421;DHT22;52028;50.658;14.004;2022-11-15T05:32:47;7.48;89.16
65421;DHT22;52028;50.658;14.004;2022-11-15T05:35:21;7.43;89.41
65421;DHT22;52028;50.658;14.004;2022-11-15T05:37:51;7.35;89.42
65421;DHT22;52028;50.658;14.004;2022-11-15T05:40:16;7.33;89.68
65421;DHT22;52028;50.658;14.004;2022-11-15T05:42:41;7.33;89.75
65421;DHT22;52028;50.658;14.004;2022-11-15T05:45:08;7.50;89.25
65421;DHT22;52028;50.658;14.004;2022-11-15T05:47:35;7.52;89.19
65421;DHT22;52028;50.658;14.004;2022-11-15T05:50:02;7.50;89.19
65421;DHT22;52028;50.658;14.004;2022-11-15T05:52:30;7.43;89.38
65421;DHT22;52028;50.658;14.004;2022-11-15T05:54:57;7.41;89.31
65421;DHT22;52028;50.658;14.004;2022-11-15T05:57:24;7.46;89.27
65421;DHT22;52028;50.658;14.004;2022-11-15T05:59:49;7.46;89.37
65421;DHT22;52028;50.658;14.004;2022-11-15T06:02:15;7.42;89.42
65421;DHT22;52028;50.658;14.004;2022-11-15T06:04:41;7.39;89.51
65421;DHT22;52028;50.658;14.004;2022-11-15T06:07:06;7.43;88.98
65421;DHT22;52028;50.658;14.004;2022-11-15T06:09:31;7.28;89.45
65421;DHT22;52028;50.658;14.004;2022-11-15T06:11:57;7.16;90.00
65421;DHT22;52028;50.658;14.004;2022-11-15T06:14:22;7.09;90.53
65421;DHT22;52028;50.658;14.004;2022-11-15T06:16:47;7.05;90.46
65421;DHT22;52028;50.658;14.004;2022-11-15T06:19:12;6.98;90.78
65421;DHT22;52028;50.658;14.004;2022-11-15T06:21:38;7.01;90.84
65421;DHT22;52028;50.658;14.004;2022-11-15T06:24:04;6.96;90.89
65421;DHT22;52028;50.658;14.004;2022-11-15T06:26:30;6.96;90.93
65421;DHT22;52028;50.658;14.004;2022-11-15T06:28:55;6.93;91.22
65421;DHT22;52028;50.658;14.004;2022-11-15T06:31:20;6.98;91.01
65421;DHT22;52028;50.658;14.004;2022-11-15T06:33:47;6.88;91.05
65421;DHT22;52028;50.658;14.004;2022-11-15T06:36:14;6.98;90.89
65421;DHT22;52028;50.658;14.004;2022-11-15T06:38:41;6.98;90.69
65421;DHT22;52028;50.658;14.004;2022-11-15T06:41:08;6.90;90.68
65421;DHT22;52028;50.658;14.004;2022-11-15T06:43:34;6.72;91.03
65421;DHT22;52028;50.658;14.004;2022-11-15T06:46:01;6.73;91.20
65421;DHT22;52028;50.658;14.004;2022-11-15T06:48:27;6.70;91.19
65421;DHT22;52028;50.658;14.004;2022-11-15T06:50:54;6.70;91.39
65421;DHT22;52028;50.658;14.004;2022-11-15T06:53:20;6.62;91.26
65421;DHT22;52028;50.658;14.004;2022-11-15T06:55:46;6.72;91.13
65421;DHT22;52028;50.658;14.004;2022-11-15T06:58:11;6.62;91.16
65421;DHT22;52028;50.658;14.004;2022-11-15T07:00:36;6.66;91.03
65421;DHT22;52028;50.658;14.004;2022-11-15T07:03:02;6.76;90.72
65421;DHT22;52028;50.658;14.004;2022-11-15T07:05:28;6.81;90.42
65421;DHT22;52028;50.658;14.004;2022-11-15T07:07:55;6.87;90.04
65421;DHT22;52028;50.658;14.004;2022-11-15T07:10:21;6.88;89.73
65421;DHT22;52028;50.658;14.004;2022-11-15T07:12:48;7.00;89.66
65421;DHT22;52028;50.658;14.004;2022-11-15T07:15:15;7.14;88.96
65421;DHT22;52028;50.658;14.004;2022-11-15T07:17:40;7.19;88.64
65421;DHT22;52028;50.658;14.004;2022-11-15T07:20:06;7.19;88.45
65421;DHT22;52028;50.658;14.004;2022-11-15T07:22:35;7.21;88.63
65421;DHT22;52028;50.658;14.004;2022-11-15T07:25:00;7.35;88.38
65421;DHT22;52028;50.658;14.004;2022-11-15T07:27:25;7.49;87.73
65421;DHT22;52028;50.658;14.004;2022-11-15T07:29:51;7.24;87.42
65421;DHT22;52028;50.658;14.004;2022-11-15T07:32:16;7.08;88.46
65421;DHT22;52028;50.658;14.004;2022-11-15T07:34:42;6.87;89.20
65421;DHT22;52028;50.658;14.004;2022-11-15T07:37:07;6.94;89.11
65421;DHT22;52028;50.658;14.004;2022-11-15T07:39:33;6.96;89.03
65421;DHT22;52028;50.658;14.004;2022-11-15T07:41:59;7.09;88.54
65421;DHT22;52028;50.658;14.004;2022-11-15T07:44:42;7.11;88.32
65421;DHT22;52028;50.658;14.004;2022-11-15T07:47:08;7.29;88.23
65421;DHT22;52028;50.658;14.004;2022-11-15T07:49:33;7.49;87.60
65421;DHT22;52028;50.658;14.004;2022-11-15T07:51:58;7.63;86.77
65421;DHT22;52028;50.658;14.004;2022-11-15T07:54:24;7.59;86.29
65421;DHT22;52028;50.658;14.004;2022-11-15T07:56:49;7.48;85.99
65421;DHT22;52028;50.658;14.004;2022-11-15T07:59:14;7.28;86.82
65421;DHT22;52028;50.658;14.004;2022-11-15T08:01:40;7.46;86.56
65421;DHT22;52028;50.658;14.004;2022-11-15T08:04:05;7.46;86.16
65421;DHT22;52028;50.658;14.004;2022-11-15T08:06:30;7.50;86.08
65421;DHT22;52028;50.658;14.004;2022-11-15T08:08:55;7.70;85.80
65421;DHT22;52028;50.658;14.004;2022-11-15T08:11:21;7.77;85.45
65421;DHT22;52028;50.658;14.004;2022-11-15T08:13:46;7.78;85.42
65421;DHT22;52028;50.658;14.004;2022-11-15T08:16:11;7.94;85.11
65421;DHT22;52028;50.658;14.004;2022-11-15T08:18:37;8.08;84.88
65421;DHT22;52028;50.658;14.004;2022-11-15T08:21:03;8.20;84.46
65421;DHT22;52028;50.658;14.004;2022-11-15T08:23:29;8.33;83.98
65421;DHT22;52028;50.658;14.004;2022-11-15T08:26:05;8.42;83.24
65421;DHT22;52028;50.658;14.004;2022-11-15T08:28:31;8.50;82.73
65421;DHT22;52028;50.658;14.004;2022-11-15T08:30:57;8.52;82.43
65421;DHT22;52028;50.658;14.004;2022-11-15T08:33:22;8.24;83.07
65421;DHT22;52028;50.658;14.004;2022-11-15T08:35:48;7.78;84.56
65421;DHT22;52028;50.658;14.004;2022-11-15T08:38:14;7.65;85.40
65421;DHT22;52028;50.658;14.004;2022-11-15T08:40:39;7.71;84.87
65421;DHT22;52028;50.658;14.004;2022-11-15T08:43:05;7.66;85.00
65421;DHT22;52028;50.658;14.004;2022-11-15T08:45:31;7.58;85.25
65421;DHT22;52028;50.658;14.004;2022-11-15T08:48:01;7.58;85.88
65421;DHT22;52028;50.658;14.004;2022-11-15T08:50:26;7.49;86.31
65421;DHT22;52028;50.658;14.004;2022-11-15T08:52:51;7.56;86.11
65421;DHT22;52028;50.658;14.004;2022-11-15T08:55:17;7.63;85.36
65421;DHT22;52028;50.658;14.004;2022-11-15T08:57:42;7.67;85.22
65421;DHT22;52028;50.658;14.004;2022-11-15T09:00:08;7.63;85.53
65421;DHT22;52028;50.658;14.004;2022-11-15T09:02:33;7.55;86.39
65421;DHT22;52028;50.658;14.004;2022-11-15T09:04:59;7.74;86.14
65421;DHT22;52028;50.658;14.004;2022-11-15T09:07:24;7.87;84.79
65421;DHT22;52028;50.658;14.004;2022-11-15T09:09:49;7.80;84.60
65421;DHT22;52028;50.658;14.004;2022-11-15T09:12:15;7.78;84.68
65421;DHT22;52028;50.658;14.004;2022-11-15T09:14:40;7.67;85.14
65421;DHT22;52028;50.658;14.004;2022-11-15T09:17:08;7.45;85.63
65421;DHT22;52028;50.658;14.004;2022-11-15T09:19:34;7.29;86.38
65421;DHT22;52028;50.658;14.004;2022-11-15T09:21:59;7.28;86.68
65421;DHT22;52028;50.658;14.004;2022-11-15T09:24:25;7.22;86.91
65421;DHT22;52028;50.658;14.004;2022-11-15T09:26:51;7.24;86.59
65421;DHT22;52028;50.658;14.004;2022-11-15T09:29:17;7.19;86.61
65421;DHT22;52028;50.658;14.004;2022-11-15T09:31:45;7.18;86.84
65421;DHT22;52028;50.658;14.004;2022-11-15T09:34:11;7.19;86.81
65421;DHT22;52028;50.658;14.004;2022-11-15T09:36:37;7.26;87.01
65421;DHT22;52028;50.658;14.004;2022-11-15T09:39:02;7.28;86.95
65421;DHT22;52028;50.658;14.004;2022-11-15T09:41:50;7.52;86.79
65421;DHT22;52028;50.658;14.004;2022-11-15T09:49:29;7.73;86.02
65421;DHT22;52028;50.658;14.004;2022-11-15T09:51:56;7.60;85.97
65421;DHT22;52028;50.658;14.004;2022-11-15T09:54:34;7.55;86.28
65421;DHT22;52028;50.658;14.004;2022-11-15T09:57:15;7.67;85.71
65421;DHT22;52028;50.658;14.004;2022-11-15T10:05:11;8.01;84.89
65421;DHT22;52028;50.658;14.004;2022-11-15T10:07:49;7.65;85.29
65421;DHT22;52028;50.658;14.004;2022-11-15T10:10:29;7.81;85.61
65421;DHT22;52028;50.658;14.004;2022-11-15T10:12:56;7.86;85.07
65421;DHT22;52028;50.658;14.004;2022-11-15T10:15:23;7.87;84.98
65421;DHT22;52028;50.658;14.004;2022-11-15T10:18:12;7.76;85.21
65421;DHT22;52028;50.658;14.004;2022-11-15T10:20:50;7.95;84.72
65421;DHT22;52028;50.658;14.004;2022-11-15T10:23:22;8.12;84.43
65421;DHT22;52028;50.658;14.004;2022-11-15T10:25:51;8.18;83.95
65421;DHT22;52028;50.658;14.004;2022-11-15T10:28:22;8.14;84.20
65421;DHT22;52028;50.658;14.004;2022-11-15T10:30:55;8.15;84.48
65421;DHT22;52028;50.658;14.004;2022-11-15T10:46:48;8.22;83.89
65421;DHT22;52028;50.658;14.004;2022-11-15T10:49:18;8.22;84.14
65421;DHT22;52028;50.658;14.004;2022-11-15T10:51:48;8.26;83.94
65421;DHT22;52028;50.658;14.004;2022-11-15T10:54:28;8.36;84.16
65421;DHT22;52028;50.658;14.004;2022-11-15T10:56:56;8.77;83.16
65421;DHT22;52028;50.658;14.004;2022-11-15T10:59:35;8.61;83.26
65421;DHT22;52028;50.658;14.004;2022-11-15T11:02:01;8.68;82.76
65421;DHT22;52028;50.658;14.004;2022-11-15T11:04:26;8.53;83.11
65421;DHT22;52028;50.658;14.004;2022-11-15T11:06:57;8.64;82.69
65421;DHT22;52028;50.658;14.004;2022-11-15T11:09:37;8.68;82.36
65421;DHT22;52028;50.658;14.004;2022-11-15T11:12:06;8.45;83.29
65421;DHT22;52028;50.658;14.004;2022-11-15T11:14:36;8.53;83.05
65421;DHT22;52028;50.658;14.004;2022-11-15T11:22:24;8.40;83.36
65421;DHT22;52028;50.658;14.004;2022-11-15T11:30:39;8.09;84.10
65421;DHT22;52028;50.658;14.004;2022-11-15T11:33:12;7.94;84.03
65421;DHT22;52028;50.658;14.004;2022-11-15T11:35:53;7.69;85.12
65421;DHT22;52028;50.658;14.004;2022-11-15T11:46:36;7.35;86.22
65421;DHT22;52028;50.658;14.004;2022-11-15T11:49:09;7.41;86.14
65421;DHT22;52028;50.658;14.004;2022-11-15T11:54:53;7.70;85.53
65421;DHT22;52028;50.658;14.004;2022-11-15T12:00:26;7.94;84.40
65421;DHT22;52028;50.658;14.004;2022-11-15T12:05:42;8.01;83.81
65421;DHT22;52028;50.658;14.004;2022-11-15T12:10:57;8.09;83.11
65421;DHT22;52028;50.658;14.004;2022-11-15T12:13:26;8.21;82.99
65421;DHT22;52028;50.658;14.004;2022-11-15T12:15:59;8.04;82.75
65421;DHT22;52028;50.658;14.004;2022-11-15T12:18:27;7.66;83.84
65421;DHT22;52028;50.658;14.004;2022-11-15T12:23:57;7.29;85.09
65421;DHT22;52028;50.658;14.004;2022-11-15T12:26:31;7.12;85.72
65421;DHT22;52028;50.658;14.004;2022-11-15T12:29:01;7.08;86.09
65421;DHT22;52028;50.658;14.004;2022-11-15T12:34:01;7.11;85.90
65421;DHT22;52028;50.658;14.004;2022-11-15T12:36:36;7.05;86.35
65421;DHT22;52028;50.658;14.004;2022-11-15T12:39:04;7.05;86.01
65421;DHT22;52028;50.658;14.004;2022-11-15T12:41:35;7.03;86.26
65421;DHT22;52028;50.658;14.004;2022-11-15T12:44:03;7.08;86.15
65421;DHT22;52028;50.658;14.004;2022-11-15T12:48:59;7.03;86.47
65421;DHT22;52028;50.658;14.004;2022-11-15T13:00:04;6.98;87.17
65421;DHT22;52028;50.658;14.004;2022-11-15T13:02:39;6.87;87.37
65421;DHT22;52028;50.658;14.004;2022-11-15T13:26:01;7.09;87.08
65421;DHT22;52028;50.658;14.004;2022-11-15T13:31:27;6.97;86.98
65421;DHT22;52028;50.658;14.004;2022-11-15T13:33:56;7.12;86.57
65421;DHT22;52028;50.658;14.004;2022-11-15T13:36:25;7.00;86.57
65421;DHT22;52028;50.658;14.004;2022-11-15T13:41:49;7.24;85.66
65421;DHT22;52028;50.658;14.004;2022-11-15T13:44:31;7.32;85.24
65421;DHT22;52028;50.658;14.004;2022-11-15T13:47:14;7.39;85.18
65421;DHT22;52028;50.658;14.004;2022-11-15T13:49:40;7.14;85.76
65421;DHT22;52028;50.658;14.004;2022-11-15T13:52:08;7.04;85.82
65421;DHT22;52028;50.658;14.004;2022-11-15T13:54:50;6.98;86.40
65421;DHT22;52028;50.658;14.004;2022-11-15T13:57:20;7.03;86.34
65421;DHT22;52028;50.658;14.004;2022-11-15T14:00:21;6.94;86.56
65421;DHT22;52028;50.658;14.004;2022-11-15T14:02:47;6.73;87.07
65421;DHT22;52028;50.658;14.004;2022-11-15T14:05:21;6.69;87.53
65421;DHT22;52028;50.658;14.004;2022-11-15T14:08:12;6.45;88.24
65421;DHT22;52028;50.658;14.004;2022-11-15T14:10:39;6.57;88.48
65421;DHT22;52028;50.658;14.004;2022-11-15T14:13:11;6.52;88.30
65421;DHT22;52028;50.658;14.004;2022-11-15T14:15:51;6.57;88.36
65421;DHT22;52028;50.658;14.004;2022-11-15T14:18:43;6.53;88.38
65421;DHT22;52028;50.658;14.004;2022-11-15T14:21:09;6.68;88.29
65421;DHT22;52028;50.658;14.004;2022-11-15T14:23:35;6.84;87.85
65421;DHT22;52028;50.658;14.004;2022-11-15T14:26:00;6.90;87.29
65421;DHT22;52028;50.658;14.004;2022-11-15T14:30:53;7.04;86.71
65421;DHT22;52028;50.658;14.004;2022-11-15T14:33:36;7.11;86.27
65421;DHT22;52028;50.658;14.004;2022-11-15T14:36:19;7.16;85.78
65421;DHT22;52028;50.658;14.004;2022-11-15T14:38:44;7.15;85.77
65421;DHT22;52028;50.658;14.004;2022-11-15T14:41:24;7.22;85.41
65421;DHT22;52028;50.658;14.004;2022-11-15T14:43:50;7.11;85.70
65421;DHT22;52028;50.658;14.004;2022-11-15T14:46:16;6.79;86.48
65421;DHT22;52028;50.658;14.004;2022-11-15T14:48:42;6.63;87.43
65421;DHT22;52028;50.658;14.004;2022-11-15T14:51:12;6.75;87.15
65421;DHT22;52028;50.658;14.004;2022-11-15T14:53:39;6.77;87.08
65421;DHT22;52028;50.658;14.004;2022-11-15T14:56:09;6.77;87.03
65421;DHT22;52028;50.658;14.004;2022-11-15T14:58:38;6.79;86.75
65421;DHT22;52028;50.658;14.004;2022-11-15T15:01:17;6.80;86.60
65421;DHT22;52028;50.658;14.004;2022-11-15T15:03:44;6.79;86.54
65421;DHT22;52028;50.658;14.004;2022-11-15T15:06:09;6.84;86.54
65421;DHT22;52028;50.658;14.004;2022-11-15T15:08:37;6.84;86.33
65421;DHT22;52028;50.658;14.004;2022-11-15T15:11:06;6.84;86.40
65421;DHT22;52028;50.658;14.004;2022-11-15T15:13:34;6.87;86.27
65421;DHT22;52028;50.658;14.004;2022-11-15T15:15:59;6.62;86.34
65421;DHT22;52028;50.658;14.004;2022-11-15T15:18:24;6.59;86.88
65421;DHT22;52028;50.658;14.004;2022-11-15T15:20:56;6.68;86.78
65421;DHT22;52028;50.658;14.004;2022-11-15T15:23:27;6.72;86.70
65421;DHT22;52028;50.658;14.004;2022-11-15T15:25:55;6.76;86.37
65421;DHT22;52028;50.658;14.004;2022-11-15T15:28:21;6.90;86.18
65421;DHT22;52028;50.658;14.004;2022-11-15T15:30:46;6.96;85.90
65421;DHT22;52028;50.658;14.004;2022-11-15T15:33:11;7.03;85.55
65421;DHT22;52028;50.658;14.004;2022-11-15T15:35:37;7.04;85.54
65421;DHT22;52028;50.658;14.004;2022-11-15T15:38:03;7.11;85.23
65421;DHT22;52028;50.658;14.004;2022-11-15T15:40:30;7.15;85.00
65421;DHT22;52028;50.658;14.004;2022-11-15T15:42:56;7.18;84.93
65421;DHT22;52028;50.658;14.004;2022-11-15T15:45:21;7.21;84.99
65421;DHT22;52028;50.658;14.004;2022-11-15T15:47:47;7.19;84.88
65421;DHT22;52028;50.658;14.004;2022-11-15T15:52:42;7.07;85.02
65421;DHT22;52028;50.658;14.004;2022-11-15T15:55:07;7.15;84.89
65421;DHT22;52028;50.658;14.004;2022-11-15T15:57:33;7.05;85.12
65421;DHT22;52028;50.658;14.004;2022-11-15T15:59:59;6.96;85.42
65421;DHT22;52028;50.658;14.004;2022-11-15T16:02:24;6.94;85.65
65421;DHT22;52028;50.658;14.004;2022-11-15T16:04:49;6.50;86.62
65421;DHT22;52028;50.658;14.004;2022-11-15T16:07:21;6.49;87.47
65421;DHT22;52028;50.658;14.004;2022-11-15T16:09:49;6.65;87.12
65421;DHT22;52028;50.658;14.004;2022-11-15T16:14:52;6.38;87.84
65421;DHT22;52028;50.658;14.004;2022-11-15T16:17:20;6.25;88.79
65421;DHT22;52028;50.658;14.004;2022-11-15T16:19:46;6.18;88.82
65421;DHT22;52028;50.658;14.004;2022-11-15T16:22:11;6.17;89.03
65421;DHT22;52028;50.658;14.004;2022-11-15T16:24:37;6.36;88.80
65421;DHT22;52028;50.658;14.004;2022-11-15T16:27:02;6.46;88.50
65421;DHT22;52028;50.658;14.004;2022-11-15T16:29:27;6.48;88.40
65421;DHT22;52028;50.658;14.004;2022-11-15T16:31:53;6.59;88.14
65421;DHT22;52028;50.658;14.004;2022-11-15T16:34:18;6.69;88.01
65421;DHT22;52028;50.658;14.004;2022-11-15T16:36:44;6.75;87.72
65421;DHT22;52028;50.658;14.004;2022-11-15T16:39:13;6.83;87.41
65421;DHT22;52028;50.658;14.004;2022-11-15T16:41:39;6.80;87.28
65421;DHT22;52028;50.658;14.004;2022-11-15T16:44:04;6.86;87.22
65421;DHT22;52028;50.658;14.004;2022-11-15T16:46:30;6.93;86.95
65421;DHT22;52028;50.658;14.004;2022-11-15T16:48:55;7.01;86.45
65421;DHT22;52028;50.658;14.004;2022-11-15T16:51:22;6.96;86.51
65421;DHT22;52028;50.658;14.004;2022-11-15T16:53:47;7.05;86.27
65421;DHT22;52028;50.658;14.004;2022-11-15T16:56:25;7.05;85.88
65421;DHT22;52028;50.658;14.004;2022-11-15T16:58:52;6.90;86.01
65421;DHT22;52028;50.658;14.004;2022-11-15T17:01:23;6.75;86.76
65421;DHT22;52028;50.658;14.004;2022-11-15T17:03:49;6.83;86.28
65421;DHT22;52028;50.658;14.004;2022-11-15T17:06:15;6.66;86.58
65421;DHT22;52028;50.658;14.004;2022-11-15T17:08:42;6.42;87.45
65421;DHT22;52028;50.658;14.004;2022-11-15T17:11:08;6.25;88.18
65421;DHT22;52028;50.658;14.004;2022-11-15T17:13:34;6.25;88.64
65421;DHT22;52028;50.658;14.004;2022-11-15T17:16:10;6.14;89.00
65421;DHT22;52028;50.658;14.004;2022-11-15T17:18:35;6.13;89.24
65421;DHT22;52028;50.658;14.004;2022-11-15T17:21:12;6.07;89.59
65421;DHT22;52028;50.658;14.004;2022-11-15T17:23:37;6.15;89.89
65421;DHT22;52028;50.658;14.004;2022-11-15T17:26:04;6.17;89.91
65421;DHT22;52028;50.658;14.004;2022-11-15T17:28:33;6.15;89.93
65421;DHT22;52028;50.658;14.004;2022-11-15T17:30:59;6.17;90.06
65421;DHT22;52028;50.658;14.004;2022-11-15T17:33:25;6.28;89.99
65421;DHT22;52028;50.658;14.004;2022-11-15T17:35:58;6.38;89.60
65421;DHT22;52028;50.658;14.004;2022-11-15T17:38:24;6.48;89.39
65421;DHT22;52028;50.658;14.004;2022-11-15T17:41:02;6.60;88.99
65421;DHT22;52028;50.658;14.004;2022-11-15T17:43:29;6.68;88.68
65421;DHT22;52028;50.658;14.004;2022-11-15T17:45:54;6.69;88.13
65421;DHT22;52028;50.658;14.004;2022-11-15T17:48:20;6.70;88.21
65421;DHT22;52028;50.658;14.004;2022-11-15T17:50:57;6.77;87.79
65421;DHT22;52028;50.658;14.004;2022-11-15T17:53:23;6.76;87.58